Terminal Aerodrome Forecast
Issued by NWS

Home | Current Version | Previous Version | Text Only | Print | Product List | Glossary On
Versions: 1 2 3 4 5 6 7 8 9 10 11 12 13 14 15
000
FTUS45 KTFX 310500
TAFHLN
TAF
KHLN 310537Z 3106/0106 VRB06KT P6SM BKN180
     FM311300 33006KT P6SM SCT040 BKN070
     FM311600 35010KT 3SM -SN OVC040
      TEMPO 3117/3121 1SM -SN OVC012
     FM312100 34005KT 3SM -SN OVC025=

USA.gov is the U.S. government's official web portal to all federal, state and local government web resources and services.